Time;durP1;ratioP1;P1;durP2;ratioP2;P2;SDS_P1;SDS_P2;PMS_P1;PMS_P2;Temp;Humidity;BMP_temperature;BMP_pressure;BME280_temperature;BME280_humidity;BME280_pressure;Samples;Min_cycle;Max_cycle;Signal;HPM_P1;HPM_P2
2021/05/01 00:01:48;;;;;;;61.57;42.77;;;6.90;99.90;;;7.76;100.00;97581.91;5220859;28;20563;-62
2021/05/01 00:04:20;;;;;;;63.73;45.10;;;6.90;99.90;;;7.77;100.00;97583.66;5223775;28;20201;-61
2021/05/01 00:06:52;;;;;;;56.90;43.43;;;7.00;99.90;;;7.81;100.00;97584.72;5220078;28;20694;-61
2021/05/01 00:09:24;;;;;;;60.83;43.70;;;7.00;99.90;;;7.82;100.00;97568.69;5226033;28;20692;-61
2021/05/01 00:11:57;;;;;;;60.60;45.07;;;7.00;99.90;;;7.85;100.00;97563.81;5214351;28;20767;-62
2021/05/01 00:14:29;;;;;;;57.30;42.70;;;7.00;99.90;;;7.84;100.00;97559.47;5226404;28;20691;-61
2021/05/01 00:17:01;;;;;;;59.47;43.30;;;7.00;99.90;;;7.80;100.00;97557.53;5226419;28;20665;-61
2021/05/01 00:19:34;;;;;;;56.70;41.70;;;6.90;99.90;;;7.77;100.00;97557.34;5226013;28;20696;-62
2021/05/01 00:22:06;;;;;;;57.97;41.10;;;6.90;99.90;;;7.74;100.00;97555.50;5224639;28;20548;-61
2021/05/01 00:24:38;;;;;;;59.03;43.37;;;6.80;99.90;;;7.67;100.00;97555.91;5226880;28;20197;-62
2021/05/01 00:27:11;;;;;;;63.70;45.43;;;6.80;99.90;;;7.66;100.00;97552.44;5226435;28;20205;-61
2021/05/01 00:29:43;;;;;;;66.33;44.97;;;6.80;99.90;;;7.68;100.00;97547.47;5241238;22;20213;-65
2021/05/01 00:32:15;;;;;;;60.87;43.53;;;6.90;99.90;;;7.73;100.00;97552.88;5221337;28;20205;-66
2021/05/01 00:34:47;;;;;;;63.50;42.53;;;6.90;99.90;;;7.75;100.00;97549.59;5231617;28;20271;-65
2021/05/01 00:37:19;;;;;;;64.57;43.53;;;6.90;99.90;;;7.75;100.00;97553.81;5231488;28;20288;-65
2021/05/01 00:39:51;;;;;;;66.13;44.57;;;6.90;99.90;;;7.75;100.00;97548.72;5236422;28;20304;-65
2021/05/01 00:42:24;;;;;;;60.43;43.27;;;6.90;99.90;;;7.78;100.00;97546.38;5225225;28;20208;-65
2021/05/01 00:44:56;;;;;;;62.97;43.03;;;6.90;99.90;;;7.79;100.00;97540.53;5225563;28;20198;-65
2021/05/01 00:47:28;;;;;;;62.40;44.17;;;7.00;99.90;;;7.80;100.00;97548.22;5224675;28;20197;-65
2021/05/01 00:50:01;;;;;;;65.37;44.57;;;6.90;99.90;;;7.79;100.00;97545.63;5233421;28;20216;-65
2021/05/01 00:52:34;;;;;;;62.73;42.47;;;6.90;99.90;;;7.76;100.00;97550.50;5228214;28;20661;-65
2021/05/01 00:55:09;;;;;;;66.10;44.47;;;6.90;99.90;;;7.75;100.00;97554.69;5234919;28;20189;-65
2021/05/01 00:57:42;;;;;;;59.00;42.90;;;6.90;99.90;;;7.74;100.00;97546.97;5230353;28;20193;-65
2021/05/01 01:00:32;;;;;;;56.67;42.10;;;6.90;99.90;;;7.74;100.00;97540.22;5227979;28;20225;-65
2021/05/01 01:03:05;;;;;;;66.33;47.40;;;6.90;99.90;;;7.71;100.00;97526.44;5224961;28;20611;-66
2021/05/01 01:05:37;;;;;;;70.83;47.90;;;6.80;99.90;;;7.65;100.00;97525.28;5235057;28;20204;-65
2021/05/01 01:08:09;;;;;;;54.13;40.33;;;6.90;99.90;;;7.60;100.00;97519.00;5239442;28;20198;-65
2021/05/01 01:10:42;;;;;;;51.60;38.53;;;6.70;99.90;;;7.58;100.00;97525.69;5240318;28;20215;-65
2021/05/01 01:13:15;;;;;;;51.83;37.77;;;6.70;99.90;;;7.58;100.00;97535.84;5224057;28;20288;-66
2021/05/01 01:15:48;;;;;;;53.10;38.20;;;6.70;99.90;;;7.52;100.00;97532.91;5229903;28;20625;-65
2021/05/01 01:18:20;;;;;;;53.20;38.93;;;6.70;99.90;;;7.57;100.00;97544.25;5240693;28;20207;-65
2021/05/01 01:20:52;;;;;;;54.03;38.10;;;6.70;99.90;;;7.58;100.00;97545.13;5238438;28;20565;-65
2021/05/01 01:23:25;;;;;;;56.47;40.03;;;6.70;99.90;;;7.59;100.00;97544.34;5229613;28;20194;-65
2021/05/01 01:25:58;;;;;;;52.97;38.23;;;6.70;99.90;;;7.60;100.00;97534.25;5229972;28;20200;-65
2021/05/01 01:28:30;;;;;;;53.27;38.67;;;6.80;99.90;;;7.61;100.00;97525.88;5228748;28;20295;-65
2021/05/01 01:31:02;;;;;;;54.90;39.57;;;6.80;99.90;;;7.59;100.00;97535.06;5234292;28;20225;-65
2021/05/01 01:33:36;;;;;;;50.83;38.73;;;6.70;99.90;;;7.53;100.00;97537.22;5238763;28;20284;-66
2021/05/01 01:36:09;;;;;;;48.50;37.47;;;6.60;99.90;;;7.46;100.00;97535.06;5228418;28;20195;-66
2021/05/01 01:38:41;;;;;;;49.80;36.53;;;6.50;99.90;;;7.47;100.00;97535.94;5229733;28;20287;-66
2021/05/01 01:41:14;;;;;;;50.93;37.77;;;6.50;99.90;;;7.39;100.00;97538.00;5231528;28;20224;-65
2021/05/01 01:43:46;;;;;;;48.47;36.10;;;6.50;99.90;;;7.39;100.00;97543.09;5224561;28;20208;-65
2021/05/01 01:46:18;;;;;;;55.13;38.60;;;6.50;99.90;;;7.40;100.00;97549.94;5231263;28;20199;-65
2021/05/01 01:48:50;;;;;;;54.93;38.20;;;6.50;99.90;;;7.45;100.00;97553.66;5227879;28;20224;-66
2021/05/01 01:51:22;;;;;;;59.53;41.00;;;6.60;99.90;;;7.46;100.00;97557.94;5229388;28;20216;-66
2021/05/01 01:53:55;;;;;;;56.33;39.27;;;6.60;99.90;;;7.48;100.00;97548.75;5234626;28;20280;-65
2021/05/01 01:56:27;;;;;;;60.93;41.40;;;6.60;99.90;;;7.50;100.00;97552.28;5248254;28;20207;-66
2021/05/01 01:58:59;;;;;;;64.37;42.03;;;6.60;99.90;;;7.51;100.00;97548.06;5240884;28;20200;-65
2021/05/01 02:01:31;;;;;;;60.03;41.00;;;6.60;99.90;;;7.51;100.00;97546.41;5230546;28;20217;-65
2021/05/01 02:04:04;;;;;;;63.60;42.07;;;6.60;99.90;;;7.49;100.00;97555.59;5227866;28;20203;-65
2021/05/01 02:06:36;;;;;;;59.77;40.93;;;6.70;99.90;;;7.48;100.00;97558.94;5229819;28;20280;-66
2021/05/01 02:09:11;;;;;;;53.87;38.00;;;6.70;99.90;;;7.52;100.00;97560.88;5229155;28;20639;-66
2021/05/01 02:11:43;;;;;;;55.77;39.37;;;6.70;99.90;;;7.51;100.00;97558.25;5227511;28;20213;-66
2021/05/01 02:14:15;;;;;;;55.53;39.10;;;6.60;99.90;;;7.52;100.00;97555.78;5231836;28;20223;-66
2021/05/01 02:16:47;;;;;;;55.60;39.53;;;6.70;99.90;;;7.55;100.00;97553.44;5229415;28;20277;-66
2021/05/01 02:19:19;;;;;;;64.23;44.37;;;6.70;99.90;;;7.53;100.00;97557.56;5228768;28;20716;-66
2021/05/01 02:21:51;;;;;;;62.87;43.27;;;6.70;99.90;;;7.54;100.00;97549.13;5227222;28;20207;-65
2021/05/01 02:24:24;;;;;;;108.90;62.90;;;6.70;99.90;;;7.56;100.00;97561.97;5227678;28;20284;-66
2021/05/01 02:26:56;;;;;;;87.77;54.87;;;6.60;99.90;;;7.51;100.00;97554.03;5229060;28;20196;-66
2021/05/01 02:29:29;;;;;;;78.00;50.87;;;6.60;99.90;;;7.44;100.00;97555.31;5228512;28;20188;-65
2021/05/01 02:32:00;;;;;;;70.23;46.77;;;6.60;99.90;;;7.41;100.00;97552.59;5228969;28;20300;-65
2021/05/01 02:34:33;;;;;;;71.27;45.60;;;6.50;99.90;;;7.45;100.00;97546.03;5228184;28;20200;-66
2021/05/01 02:37:06;;;;;;;62.57;42.80;;;6.60;99.90;;;7.48;100.00;97548.75;5232970;28;20188;-65
2021/05/01 02:39:40;;;;;;;54.77;39.77;;;6.60;99.90;;;7.40;100.00;97548.25;5228601;28;20263;-66
2021/05/01 02:42:12;;;;;;;52.40;37.97;;;6.50;99.90;;;7.36;100.00;97542.91;5230115;28;20201;-65
2021/05/01 02:44:44;;;;;;;52.20;38.23;;;6.50;99.90;;;7.32;100.00;97544.34;5227537;28;20201;-66
2021/05/01 02:47:17;;;;;;;55.93;39.93;;;6.40;99.90;;;7.30;100.00;97537.44;5233301;28;20201;-66
2021/05/01 02:49:49;;;;;;;58.07;41.03;;;6.40;99.90;;;7.35;100.00;97530.94;5227646;28;20209;-66
2021/05/01 02:52:21;;;;;;;58.20;40.27;;;6.40;99.90;;;7.35;100.00;97526.75;5226889;28;20201;-66
2021/05/01 02:54:54;;;;;;;60.17;40.73;;;6.50;99.90;;;7.38;100.00;97520.97;5247395;28;20189;-65
2021/05/01 02:57:26;;;;;;;58.27;40.97;;;6.50;99.90;;;7.40;100.00;97519.41;5240411;28;20207;-65
2021/05/01 03:00:02;;;;;;;52.23;38.60;;;6.50;99.90;;;7.39;100.00;97507.50;5236290;28;20224;-66
2021/05/01 03:02:34;;;;;;;56.87;39.87;;;6.40;99.90;;;7.40;100.00;97504.16;5227460;28;20197;-66
2021/05/01 03:05:08;;;;;;;57.20;39.47;;;6.50;99.90;;;7.38;100.00;97504.09;5227948;28;20189;-66
2021/05/01 03:07:41;;;;;;;56.80;40.30;;;6.50;99.90;;;7.42;100.00;97497.53;5244411;28;20203;-66
2021/05/01 03:10:20;;;;;;;55.60;38.53;;;6.50;99.90;;;7.40;100.00;97496.53;5240061;28;20216;-66
2021/05/01 03:12:52;;;;;;;57.70;40.30;;;6.50;99.90;;;7.38;100.00;97500.63;5237325;28;20211;-66
2021/05/01 03:15:25;;;;;;;60.23;40.53;;;6.50;99.90;;;7.42;100.00;97505.16;5241275;28;20296;-66
2021/05/01 03:17:57;;;;;;;62.90;41.37;;;6.60;99.90;;;7.47;100.00;97493.63;5236411;28;20194;-66
2021/05/01 03:20:29;;;;;;;55.80;38.97;;;6.60;99.90;;;7.47;100.00;97486.00;5237079;28;20226;-66
2021/05/01 03:23:01;;;;;;;63.37;42.60;;;6.60;99.90;;;7.47;100.00;97474.91;5226450;28;20203;-66
2021/05/01 03:25:34;;;;;;;60.67;41.47;;;6.60;99.90;;;7.40;100.00;97463.47;5237483;28;20274;-66
2021/05/01 03:28:06;;;;;;;57.30;40.33;;;6.50;99.90;;;7.44;100.00;97461.25;5227288;28;20195;-66
2021/05/01 03:30:38;;;;;;;55.77;40.60;;;6.50;99.90;;;7.38;100.00;97458.31;5227014;28;20248;-65
2021/05/01 03:33:10;;;;;;;54.03;39.50;;;6.40;99.90;;;7.30;100.00;97459.50;5225610;28;20201;-66
2021/05/01 03:35:42;;;;;;;55.23;38.13;;;6.40;99.90;;;7.26;100.00;97464.28;5239727;28;20203;-66
2021/05/01 03:38:14;;;;;;;59.97;41.60;;;6.40;99.90;;;7.26;100.00;97469.38;5239082;28;20208;-66
2021/05/01 03:40:47;;;;;;;65.80;45.17;;;6.30;99.90;;;7.24;100.00;97466.75;5247312;28;20696;-65
2021/05/01 03:43:20;;;;;;;59.13;42.13;;;6.40;99.90;;;7.22;100.00;97459.00;5239770;28;20197;-66
2021/05/01 03:45:52;;;;;;;60.13;42.03;;;6.40;99.90;;;7.26;100.00;97466.81;5247047;28;20196;-66
2021/05/01 03:48:24;;;;;;;60.07;42.53;;;6.40;99.90;;;7.23;100.00;97470.91;5234851;28;20197;-66
2021/05/01 03:50:56;;;;;;;68.37;43.90;;;6.40;99.90;;;7.27;100.00;97464.41;5228319;28;20205;-66
2021/05/01 03:53:28;;;;;;;60.50;43.33;;;6.40;99.90;;;7.25;100.00;97467.63;5227248;28;20197;-66
2021/05/01 03:56:01;;;;;;;60.00;41.67;;;6.30;99.90;;;7.19;100.00;97458.81;5232896;28;20193;-65
2021/05/01 03:58:33;;;;;;;59.97;41.87;;;6.30;99.90;;;7.17;100.00;97457.81;5237102;28;20223;-66
2021/05/01 04:01:05;;;;;;;59.80;42.10;;;6.30;99.90;;;7.17;100.00;97462.91;5226798;28;20225;-66
2021/05/01 04:03:37;;;;;;;60.40;40.43;;;6.30;99.90;;;7.16;100.00;97473.00;5233051;28;20211;-65
2021/05/01 04:06:09;;;;;;;56.43;40.23;;;6.30;99.90;;;7.11;100.00;97482.84;5230752;28;20200;-64
2021/05/01 04:08:41;;;;;;;56.53;39.10;;;6.20;99.90;;;7.09;100.00;97486.06;5235165;28;20197;-64
2021/05/01 04:11:14;;;;;;;54.97;38.37;;;6.20;99.90;;;7.07;100.00;97483.44;5243907;28;20714;-65
2021/05/01 04:13:47;;;;;;;54.40;39.07;;;6.20;99.90;;;7.04;100.00;97480.72;5228038;28;20208;-65
2021/05/01 04:16:19;;;;;;;57.40;39.67;;;6.20;99.90;;;7.00;100.00;97482.16;5229118;28;20207;-65
2021/05/01 04:18:51;;;;;;;56.93;40.27;;;6.10;99.90;;;6.96;100.00;97481.88;5227269;28;20197;-65
2021/05/01 04:21:23;;;;;;;51.60;37.30;;;6.10;99.90;;;6.89;100.00;97483.13;5226065;28;20226;-65
2021/05/01 04:23:55;;;;;;;47.73;35.53;;;6.00;99.90;;;6.81;100.00;97478.31;5227253;28;20193;-65
2021/05/01 04:26:28;;;;;;;46.83;34.37;;;5.90;99.90;;;6.80;100.00;97481.66;5226439;28;20236;-65
2021/05/01 04:29:00;;;;;;;49.40;35.63;;;5.90;99.90;;;6.83;100.00;97489.47;5226534;28;20197;-65
2021/05/01 04:31:32;;;;;;;47.50;37.27;;;6.00;99.90;;;6.79;100.00;97487.53;5229748;28;20603;-65
2021/05/01 04:34:04;;;;;;;46.83;33.60;;;5.90;99.90;;;6.81;100.00;97485.94;5225766;28;20193;-66
2021/05/01 04:36:36;;;;;;;50.30;36.27;;;5.90;99.90;;;6.87;100.00;97494.88;5227522;28;20216;-65
2021/05/01 04:39:08;;;;;;;51.57;35.40;;;6.00;99.90;;;6.91;100.00;97491.72;5238038;28;20456;-65
2021/05/01 04:41:41;;;;;;;55.87;39.40;;;6.00;99.90;;;6.91;100.00;97490.84;5243170;28;20224;-65
2021/05/01 04:44:13;;;;;;;53.03;38.20;;;6.00;99.90;;;6.98;100.00;97493.91;5231717;28;20193;-65
2021/05/01 04:46:49;;;;;;;50.80;36.43;;;6.10;99.90;;;7.04;100.00;97488.34;5244208;28;20200;-65
2021/05/01 04:49:21;;;;;;;53.83;38.50;;;6.10;99.90;;;7.07;100.00;97487.63;5231620;28;20197;-65
2021/05/01 04:51:53;;;;;;;46.00;35.50;;;6.10;99.90;;;7.05;100.00;97491.75;5238319;28;20201;-65
2021/05/01 04:54:25;;;;;;;47.90;34.97;;;6.00;99.90;;;6.94;100.00;97493.59;5233094;28;20204;-65
2021/05/01 04:56:58;;;;;;;47.07;35.27;;;6.00;99.90;;;6.96;100.00;97499.66;5236376;28;20196;-65
2021/05/01 04:59:30;;;;;;;49.83;35.67;;;6.00;99.90;;;6.99;100.00;97494.78;5228705;28;20255;-65
2021/05/01 05:02:02;;;;;;;56.77;39.00;;;6.10;99.90;;;7.07;100.00;97493.63;5241674;28;20231;-65
2021/05/01 05:04:34;;;;;;;62.73;41.87;;;6.10;99.90;;;7.07;100.00;97493.63;5229252;28;20193;-65
2021/05/01 05:07:06;;;;;;;61.77;41.03;;;6.20;99.90;;;7.09;100.00;97489.50;5230160;28;20287;-65
2021/05/01 05:09:39;;;;;;;59.27;40.83;;;6.20;99.90;;;7.17;100.00;97490.00;5229645;28;20189;-65
2021/05/01 05:12:12;;;;;;;77.40;42.03;;;6.20;99.90;;;7.20;100.00;97496.13;5229643;28;20225;-65
2021/05/01 05:14:44;;;;;;;87.27;40.40;;;6.20;99.90;;;7.16;100.00;97494.19;5232355;28;20201;-65
2021/05/01 05:17:16;;;;;;;57.30;39.67;;;6.20;99.90;;;7.29;100.00;97488.22;5235804;28;20318;-65
2021/05/01 05:19:50;;;;;;;59.73;41.20;;;6.30;99.90;;;7.32;100.00;97490.09;5221678;28;20212;-64
2021/05/01 05:22:23;;;;;;;56.93;39.10;;;6.40;99.90;;;7.36;100.00;97489.50;5234233;28;20204;-65
2021/05/01 05:24:54;;;;;;;62.93;40.50;;;6.30;99.90;;;7.35;100.00;97495.34;5236869;28;20268;-65
2021/05/01 05:27:28;;;;;;;59.27;40.80;;;6.30;99.90;;;7.31;99.44;97488.34;5216904;28;20259;-64
2021/05/01 05:30:00;;;;;;;58.50;39.63;;;6.30;99.90;;;7.37;100.00;97491.25;5232048;28;20232;-64
2021/05/01 05:32:32;;;;;;;53.70;37.13;;;6.40;99.90;;;7.43;100.00;97484.00;5230559;28;20197;-64
2021/05/01 05:35:05;;;;;;;63.53;39.83;;;6.50;99.90;;;7.41;99.99;97467.78;5227291;28;20201;-64
2021/05/01 05:37:37;;;;;;;58.30;40.30;;;6.50;99.90;;;7.45;99.54;97467.19;5228650;28;20691;-64
2021/05/01 05:40:12;;;;;;;56.47;39.93;;;6.40;99.90;;;7.42;99.23;97461.94;5229856;28;20694;-65
2021/05/01 05:42:49;;;;;;;48.97;36.03;;;6.40;99.90;;;7.47;100.00;97465.66;5228163;28;20199;-65
2021/05/01 05:45:25;;;;;;;52.83;37.70;;;6.50;99.90;;;7.53;100.00;97475.31;5227363;28;20235;-65
2021/05/01 05:47:58;;;;;;;48.93;35.33;;;6.50;99.90;;;7.56;100.00;97475.50;5237821;28;20193;-65
2021/05/01 05:50:30;;;;;;;53.63;39.10;;;6.60;99.90;;;7.51;99.30;97476.88;5229126;28;20296;-64
2021/05/01 05:53:02;;;;;;;51.80;37.47;;;6.50;99.90;;;7.59;99.76;97480.78;5228287;28;20208;-64
2021/05/01 05:55:34;;;;;;;50.07;37.20;;;6.60;99.90;;;7.60;100.00;97477.44;5246343;28;20192;-63
2021/05/01 05:58:08;;;;;;;52.00;38.07;;;6.60;99.90;;;7.72;100.00;97462.06;5229523;28;20661;-65
2021/05/01 06:00:40;;;;;;;54.83;38.37;;;6.60;99.90;;;7.82;99.72;97459.31;5248889;28;20642;-66
2021/05/01 06:03:12;;;;;;;51.60;40.00;;;6.70;99.90;;;7.97;100.00;97461.91;5227621;28;20201;-64
2021/05/01 06:05:49;;;;;;;50.23;38.23;;;6.80;99.90;;;7.98;100.00;97451.78;5230173;28;20287;-64
2021/05/01 06:08:21;;;;;;;50.37;38.57;;;6.80;99.90;;;8.06;99.00;97454.81;5232428;28;20203;-65
2021/05/01 06:10:53;;;;;;;52.20;38.60;;;6.90;99.90;;;8.23;99.01;97441.41;5228224;28;20700;-66
2021/05/01 06:13:28;;;;;;;51.63;38.83;;;7.00;99.90;;;8.33;98.11;97455.59;5228311;28;20201;-64
2021/05/01 06:16:01;;;;;;;47.90;37.00;;;7.10;99.90;;;8.41;97.43;97453.50;5242938;28;20283;-63
2021/05/01 06:18:36;;;;;;;49.23;37.50;;;7.20;99.90;;;8.62;96.91;97454.75;5236850;28;20665;-63
2021/05/01 06:21:10;;;;;;;45.37;36.07;;;7.30;99.90;;;8.68;96.85;97459.34;5228726;28;20228;-65
2021/05/01 06:23:42;;;;;;;42.47;36.23;;;7.30;99.90;;;8.59;95.30;97454.59;5229152;28;20197;-65
2021/05/01 06:26:15;;;;;;;43.73;34.97;;;7.20;99.90;;;8.64;96.61;97457.38;5227814;28;20208;-66
2021/05/01 06:28:49;;;;;;;45.10;35.70;;;7.30;99.90;;;8.89;97.65;97454.59;5236515;28;20197;-65
2021/05/01 06:31:22;;;;;;;43.47;36.03;;;7.50;99.90;;;9.01;95.04;97448.53;5242084;22;20795;-61
2021/05/01 06:33:55;;;;;;;49.63;37.53;;;7.50;99.90;;;9.22;94.67;97453.06;5221468;28;20675;-58
2021/05/01 06:36:28;;;;;;;38.20;32.73;;;7.80;99.90;;;9.59;92.07;97449.97;5227260;28;20189;-60
2021/05/01 06:39:03;;;;;;;39.63;32.83;;;7.80;99.90;;;9.91;90.93;97449.13;5226091;28;20548;-60
2021/05/01 06:41:40;;;;;;;36.57;31.37;;;8.10;99.90;;;10.08;87.68;97450.03;5221301;28;20684;-62
2021/05/01 06:44:17;;;;;;;37.67;32.77;;;8.10;99.90;;;10.23;88.62;97455.91;5223289;28;20197;-60
2021/05/01 06:46:50;;;;;;;33.90;30.20;;;8.50;99.90;;;10.30;89.09;97446.91;5213638;28;20653;-59
2021/05/01 06:49:31;;;;;;;35.40;31.60;;;8.50;99.90;;;10.31;89.83;97444.44;5222543;28;20201;-62
2021/05/01 06:52:04;;;;;;;35.93;30.90;;;8.60;99.90;;;10.24;89.62;97434.66;5210336;28;20300;-61
2021/05/01 06:54:36;;;;;;;36.03;29.90;;;8.70;99.90;;;10.21;90.80;97437.06;5209888;28;20713;-62
2021/05/01 06:57:09;;;;;;;34.23;30.63;;;8.60;99.90;;;10.21;91.15;97448.97;5210654;28;20198;-61
2021/05/01 06:59:43;;;;;;;35.57;31.77;;;8.60;99.90;;;10.41;91.77;97461.13;5210483;28;20193;-61
2021/05/01 07:02:15;;;;;;;35.57;31.13;;;8.80;99.90;;;10.33;85.85;97460.75;5225824;28;20703;-62
2021/05/01 07:04:52;;;;;;;32.27;28.87;;;8.80;99.90;;;10.38;85.66;97461.81;5223602;28;20193;-61
2021/05/01 07:07:25;;;;;;;33.50;29.90;;;8.70;99.90;;;10.27;83.06;97454.41;5220552;28;20220;-58
2021/05/01 07:09:57;;;;;;;31.27;27.93;;;8.60;99.90;;;10.32;87.71;97456.41;5224128;28;20656;-59
2021/05/01 07:12:29;;;;;;;31.00;27.80;;;8.70;99.90;;;10.31;88.24;97454.66;5225865;28;20193;-62
2021/05/01 07:15:05;;;;;;;30.40;27.20;;;8.60;99.90;;;10.30;87.56;97452.03;5216982;28;20190;-59
2021/05/01 07:17:38;;;;;;;27.93;25.03;;;8.60;99.90;;;10.34;89.07;97449.72;5223059;28;20199;-60
2021/05/01 07:20:13;;;;;;;29.47;26.27;;;8.70;99.90;;;10.41;87.83;97455.13;5225531;28;20581;-60
2021/05/01 07:22:45;;;;;;;27.47;24.60;;;8.70;99.90;;;10.42;85.98;97444.13;5207397;28;20205;-62
2021/05/01 07:25:17;;;;;;;27.13;24.30;;;8.70;99.90;;;10.44;83.66;97447.63;5206197;28;20209;-61
2021/05/01 07:27:54;;;;;;;25.20;22.80;;;8.80;99.90;;;10.50;83.39;97460.69;5211765;28;20197;-61
2021/05/01 07:30:30;;;;;;;24.42;21.83;;;8.80;99.90;;;10.56;85.87;97463.59;5226454;28;20217;-60
2021/05/01 07:33:10;;;;;;;25.30;22.65;;;8.90;99.90;;;10.68;86.73;97461.66;5226450;28;20269;-61
2021/05/01 07:35:46;;;;;;;25.25;22.65;;;9.00;99.90;;;10.71;83.04;97456.69;5226823;28;20197;-61
2021/05/01 07:38:21;;;;;;;26.08;23.48;;;9.10;99.90;;;10.89;86.78;97445.59;5210075;28;20201;-61
2021/05/01 07:40:55;;;;;;;26.73;23.63;;;9.30;99.90;;;11.17;86.46;97437.59;5205905;28;20321;-60
2021/05/01 07:43:30;;;;;;;26.67;23.90;;;9.60;99.90;;;11.27;81.91;97430.44;5224977;28;20197;-60
2021/05/01 07:46:06;;;;;;;26.77;24.08;;;9.70;99.90;;;11.20;78.26;97433.50;5226292;28;20203;-60
2021/05/01 07:48:41;;;;;;;26.48;23.77;;;9.70;99.90;;;11.35;84.44;97424.78;5226192;28;20296;-62
2021/05/01 07:51:13;;;;;;;24.58;22.17;;;9.80;99.90;;;11.24;81.56;97427.72;5225951;28;20209;-61
2021/05/01 07:53:45;;;;;;;27.15;24.30;;;9.80;99.90;;;11.37;84.86;97424.06;5209656;28;20204;-62
2021/05/01 07:56:17;;;;;;;24.02;21.73;;;9.70;99.90;;;11.23;80.51;97428.53;5215460;28;20197;-61
2021/05/01 07:58:49;;;;;;;25.30;22.70;;;9.70;99.90;;;11.25;81.45;97420.94;5225776;28;20197;-58
2021/05/01 08:01:22;;;;;;;26.42;23.75;;;9.70;99.90;;;11.30;81.41;97418.56;5226086;28;20240;-61
2021/05/01 08:03:55;;;;;;;25.85;23.25;;;9.90;99.90;;;11.50;81.88;97408.47;5225479;28;20196;-59
2021/05/01 08:06:27;;;;;;;25.38;22.77;;;10.10;99.90;;;11.74;79.54;97402.72;5219036;28;20212;-60
2021/05/01 08:09:00;;;;;;;25.98;23.38;;;10.20;99.90;;;11.32;74.78;97411.84;5225905;28;20193;-59
2021/05/01 08:11:32;;;;;;;26.83;24.05;;;10.00;99.90;;;11.29;77.97;97412.59;5225958;28;20220;-60
2021/05/01 08:14:04;;;;;;;24.73;22.15;;;10.00;99.90;;;11.43;80.62;97414.09;5225831;28;20207;-59
2021/05/01 08:16:37;;;;;;;25.40;22.75;;;10.10;99.90;;;11.57;82.49;97411.31;5225824;28;20205;-61
2021/05/01 08:19:10;;;;;;;24.33;21.85;;;10.20;99.90;;;11.58;80.88;97421.59;5225455;28;20209;-60
2021/05/01 08:21:42;;;;;;;22.50;20.27;;;10.30;99.90;;;11.59;80.51;97423.38;5224128;28;20221;-60
2021/05/01 08:24:14;;;;;;;23.98;21.65;;;10.30;99.90;;;11.62;76.90;97428.63;5205346;28;20208;-58
2021/05/01 08:26:46;;;;;;;23.73;21.42;;;10.30;99.90;;;11.77;80.07;97418.22;5205273;28;20198;-60
2021/05/01 08:29:18;;;;;;;24.48;22.08;;;10.50;99.90;;;11.81;77.58;97421.78;5205023;28;20201;-57
2021/05/01 08:31:51;;;;;;;24.55;22.05;;;10.50;99.90;;;11.99;83.29;97424.31;5204917;28;20230;-57
2021/05/01 08:34:23;;;;;;;23.80;21.45;;;10.60;99.90;;;11.80;74.94;97409.78;5214318;28;20193;-59
2021/05/01 08:36:55;;;;;;;23.27;21.08;;;10.50;99.90;;;11.89;79.47;97420.47;5225794;28;20209;-59
2021/05/01 08:39:27;;;;;;;24.17;21.77;;;10.50;99.90;;;11.91;77.39;97424.00;5223784;28;20196;-60
2021/05/01 08:41:59;;;;;;;24.40;21.90;;;10.60;99.90;;;11.94;72.70;97421.56;5225756;28;20224;-60
2021/05/01 08:44:31;;;;;;;23.75;21.52;;;10.60;99.90;;;12.02;76.12;97421.88;5217842;28;20322;-60
2021/05/01 08:47:06;;;;;;;23.23;20.98;;;10.50;99.90;;;12.07;75.75;97423.84;5205395;28;20206;-60
2021/05/01 08:49:39;;;;;;;23.55;21.30;;;10.60;99.90;;;11.97;73.20;97416.56;5223979;28;20664;-59
2021/05/01 08:52:11;;;;;;;22.77;20.58;;;10.60;99.90;;;11.79;68.83;97416.59;5222756;28;20711;-59
2021/05/01 08:54:43;;;;;;;24.20;21.80;;;10.70;99.90;;;11.97;76.06;97419.13;5210381;28;20194;-60
2021/05/01 08:57:26;;;;;;;24.08;21.67;;;10.60;99.90;;;11.79;73.70;97413.13;5218064;28;20201;-58
2021/05/01 08:59:59;;;;;;;22.50;20.27;;;10.50;99.90;;;11.72;75.44;97422.25;5219991;28;20203;-61
2021/05/01 09:02:32;;;;;;;23.10;20.80;;;10.40;99.90;;;11.59;72.55;97423.38;5223061;28;20217;-58
2021/05/01 09:05:08;;;;;;;23.05;20.75;;;10.40;99.90;;;11.48;73.63;97429.69;5215490;28;20197;-58
2021/05/01 09:07:44;;;;;;;24.10;21.58;;;10.20;99.90;;;11.20;72.06;97428.38;5223748;28;20208;-59
2021/05/01 09:10:16;;;;;;;22.58;20.38;;;10.10;99.90;;;11.13;75.65;97434.03;5217587;28;20201;-59
2021/05/01 09:12:49;;;;;;;22.95;20.60;;;10.00;99.90;;;11.23;79.80;97431.06;5221778;28;20202;-60
2021/05/01 09:15:24;;;;;;;24.73;21.60;;;10.10;99.90;;;11.33;80.05;97419.63;5228587;28;20569;-57
2021/05/01 09:18:01;;;;;;;25.13;22.55;;;10.20;99.90;;;11.33;75.68;97424.72;5219644;28;20199;-58
2021/05/01 09:20:34;;;;;;;24.95;22.52;;;10.20;99.90;;;11.36;74.17;97429.09;5224222;28;20322;-58
2021/05/01 09:23:07;;;;;;;24.92;22.40;;;10.20;99.90;;;11.38;73.95;97422.38;5217890;28;20198;-56
2021/05/01 09:25:50;;;;;;;25.23;22.55;;;10.20;99.90;;;11.31;71.13;97433.13;5216935;28;20208;-58
2021/05/01 09:28:23;;;;;;;24.30;21.92;;;10.10;99.90;;;11.32;76.45;97430.63;5221409;28;20205;-58
2021/05/01 09:31:03;;;;;;;25.77;23.17;;;10.10;99.90;;;11.23;73.20;97441.31;5214860;28;20609;-61
2021/05/01 09:33:38;;;;;;;25.90;23.20;;;10.10;99.90;;;11.28;77.33;97436.44;5226882;28;20315;-62
2021/05/01 09:36:14;;;;;;;24.73;22.23;;;10.20;99.90;;;11.41;77.96;97427.63;5227185;28;20303;-56
2021/05/01 09:38:48;;;;;;;25.45;22.95;;;10.30;99.90;;;11.38;75.16;97425.78;5227550;28;20238;-58
2021/05/01 09:41:23;;;;;;;27.77;24.95;;;10.30;99.90;;;11.39;74.57;97424.13;5225230;28;20263;-60
2021/05/01 09:44:06;;;;;;;27.02;24.13;;;10.30;99.90;;;11.22;71.43;97425.91;5225653;28;20200;-60
2021/05/01 09:46:47;;;;;;;27.40;24.60;;;10.20;99.90;;;11.19;73.16;97426.63;5222107;28;20201;-59
2021/05/01 09:49:23;;;;;;;27.70;24.85;;;10.20;99.90;;;11.28;75.10;97421.94;5227080;28;20211;-61
2021/05/01 09:51:58;;;;;;;26.40;23.70;;;10.30;99.90;;;11.36;71.99;97411.19;5223725;28;20214;-60
2021/05/01 09:54:33;;;;;;;26.58;23.98;;;10.20;99.90;;;11.35;73.59;97404.31;5217647;28;20200;-57
2021/05/01 09:57:08;;;;;;;26.52;23.73;;;10.20;99.90;;;11.23;73.66;97402.94;5225931;28;20197;-58
2021/05/01 09:59:43;;;;;;;26.13;23.52;;;10.20;99.90;;;11.26;76.17;97395.41;5225520;28;20576;-60
2021/05/01 10:02:17;;;;;;;26.45;23.73;;;10.20;99.90;;;11.30;77.73;97381.06;5215370;28;20313;-58
2021/05/01 10:05:05;;;;;;;26.83;24.05;;;10.30;99.90;;;11.33;73.53;97383.78;5225568;28;20600;-61
2021/05/01 10:07:40;;;;;;;25.77;23.27;;;10.30;99.90;;;11.22;74.92;97383.28;5217365;28;20208;-62
2021/05/01 10:10:14;;;;;;;25.85;23.25;;;10.10;99.90;;;11.33;76.00;97394.03;5224046;28;20201;-61
2021/05/01 10:12:46;;;;;;;26.17;23.58;;;10.10;99.90;;;11.23;76.66;97410.63;5223403;28;20205;-62
2021/05/01 10:15:23;;;;;;;25.98;23.33;;;10.10;99.90;;;11.42;73.23;97402.13;5219047;28;20200;-60
2021/05/01 10:18:10;;;;;;;25.92;23.23;;;10.20;99.90;;;11.34;75.24;97405.13;5224974;28;20229;-61
2021/05/01 10:20:46;;;;;;;25.27;22.80;;;10.20;99.90;;;11.25;75.46;97403.03;5225133;28;20217;-60
2021/05/01 10:23:20;;;;;;;26.60;23.83;;;10.20;99.90;;;11.19;76.06;97398.50;5221368;28;20452;-61
2021/05/01 10:25:52;;;;;;;26.10;23.38;;;10.10;99.90;;;11.21;75.80;97384.06;5223709;28;20297;-61
2021/05/01 10:28:24;;;;;;;25.02;22.35;;;10.10;99.90;;;11.19;76.32;97385.72;5225001;28;20197;-61
2021/05/01 10:30:59;;;;;;;27.17;24.42;;;10.10;99.90;;;11.10;75.05;97377.56;5218390;28;20237;-58
2021/05/01 10:33:33;;;;;;;25.65;23.00;;;10.10;99.90;;;11.10;75.68;97385.25;5225099;28;20193;-61
2021/05/01 10:36:11;;;;;;;25.52;22.98;;;10.10;99.90;;;11.21;76.66;97385.75;5209624;28;20202;-61